sensor_id;sensor_type;location;lat;lon;timestamp;temperature;humidity
63537;DHT22;49686;51.880;5.632;2022-09-17T00:00:22;8.80;99.90
63537;DHT22;49686;51.880;5.632;2022-09-17T00:02:49;8.80;99.90
63537;DHT22;49686;51.880;5.632;2022-09-17T00:05:17;8.80;99.90
63537;DHT22;49686;51.880;5.632;2022-09-17T00:07:45;8.90;99.90
63537;DHT22;49686;51.880;5.632;2022-09-17T00:10:12;8.90;99.90
63537;DHT22;49686;51.880;5.632;2022-09-17T00:12:39;9.00;99.90
63537;DHT22;49686;51.880;5.632;2022-09-17T00:15:07;8.90;99.90
63537;DHT22;49686;51.880;5.632;2022-09-17T00:17:34;9.20;99.90
63537;DHT22;49686;51.880;5.632;2022-09-17T00:20:05;8.90;99.90
63537;DHT22;49686;51.880;5.632;2022-09-17T00:22:32;8.90;99.90
63537;DHT22;49686;51.880;5.632;2022-09-17T00:25:00;8.80;99.90
63537;DHT22;49686;51.880;5.632;2022-09-17T00:27:27;8.70;99.90
63537;DHT22;49686;51.880;5.632;2022-09-17T00:29:54;8.70;99.90
63537;DHT22;49686;51.880;5.632;2022-09-17T00:32:21;8.70;99.90
63537;DHT22;49686;51.880;5.632;2022-09-17T00:34:48;8.70;99.90
63537;DHT22;49686;51.880;5.632;2022-09-17T00:37:15;8.70;99.90
63537;DHT22;49686;51.880;5.632;2022-09-17T00:39:42;8.80;99.90
63537;DHT22;49686;51.880;5.632;2022-09-17T00:42:11;8.70;99.90
63537;DHT22;49686;51.880;5.632;2022-09-17T00:44:42;8.60;99.90
63537;DHT22;49686;51.880;5.632;2022-09-17T00:47:22;8.60;99.90
63537;DHT22;49686;51.880;5.632;2022-09-17T00:49:53;8.70;99.90
63537;DHT22;49686;51.880;5.632;2022-09-17T00:52:25;8.70;99.90
63537;DHT22;49686;51.880;5.632;2022-09-17T00:54:57;8.80;99.90
63537;DHT22;49686;51.880;5.632;2022-09-17T00:57:28;8.80;99.90
63537;DHT22;49686;51.880;5.632;2022-09-17T00:59:56;8.70;99.90
63537;DHT22;49686;51.880;5.632;2022-09-17T01:02:24;8.60;99.90
63537;DHT22;49686;51.880;5.632;2022-09-17T01:04:51;8.70;99.90
63537;DHT22;49686;51.880;5.632;2022-09-17T01:07:30;8.50;99.90
63537;DHT22;49686;51.880;5.632;2022-09-17T01:10:08;8.60;99.90
63537;DHT22;49686;51.880;5.632;2022-09-17T01:12:55;8.40;99.90
63537;DHT22;49686;51.880;5.632;2022-09-17T01:15:33;8.40;99.90
63537;DHT22;49686;51.880;5.632;2022-09-17T01:18:15;8.30;99.90
63537;DHT22;49686;51.880;5.632;2022-09-17T01:24:16;8.20;99.90
63537;DHT22;49686;51.880;5.632;2022-09-17T01:30:25;8.20;99.90
63537;DHT22;49686;51.880;5.632;2022-09-17T01:32:57;8.10;99.90
63537;DHT22;49686;51.880;5.632;2022-09-17T01:35:33;8.00;99.90
63537;DHT22;49686;51.880;5.632;2022-09-17T01:38:09;8.00;99.90
63537;DHT22;49686;51.880;5.632;2022-09-17T01:40:43;8.00;99.90
63537;DHT22;49686;51.880;5.632;2022-09-17T01:43:20;8.30;99.90
63537;DHT22;49686;51.880;5.632;2022-09-17T01:45:50;8.10;99.90
63537;DHT22;49686;51.880;5.632;2022-09-17T01:48:19;8.00;99.90
63537;DHT22;49686;51.880;5.632;2022-09-17T01:50:50;8.10;99.90
63537;DHT22;49686;51.880;5.632;2022-09-17T01:53:21;8.10;99.90
63537;DHT22;49686;51.880;5.632;2022-09-17T01:55:50;8.10;99.90
63537;DHT22;49686;51.880;5.632;2022-09-17T01:58:22;8.00;99.90
63537;DHT22;49686;51.880;5.632;2022-09-17T02:00:55;8.00;99.90
63537;DHT22;49686;51.880;5.632;2022-09-17T02:03:25;7.80;99.90
63537;DHT22;49686;51.880;5.632;2022-09-17T02:05:57;7.90;99.90
63537;DHT22;49686;51.880;5.632;2022-09-17T02:08:30;8.00;99.90
63537;DHT22;49686;51.880;5.632;2022-09-17T02:11:03;7.90;99.90
63537;DHT22;49686;51.880;5.632;2022-09-17T02:13:39;7.80;99.90
63537;DHT22;49686;51.880;5.632;2022-09-17T02:16:14;8.00;99.90
63537;DHT22;49686;51.880;5.632;2022-09-17T02:18:48;8.00;99.90
63537;DHT22;49686;51.880;5.632;2022-09-17T02:21:17;8.10;99.90
63537;DHT22;49686;51.880;5.632;2022-09-17T02:23:53;8.10;99.90
63537;DHT22;49686;51.880;5.632;2022-09-17T02:26:22;8.00;99.90
63537;DHT22;49686;51.880;5.632;2022-09-17T02:28:53;8.10;99.90
63537;DHT22;49686;51.880;5.632;2022-09-17T02:31:22;8.00;99.90
63537;DHT22;49686;51.880;5.632;2022-09-17T02:33:51;8.00;99.90
63537;DHT22;49686;51.880;5.632;2022-09-17T02:36:20;8.00;99.90
63537;DHT22;49686;51.880;5.632;2022-09-17T02:38:47;8.00;99.90
63537;DHT22;49686;51.880;5.632;2022-09-17T02:41:16;8.20;99.90
63537;DHT22;49686;51.880;5.632;2022-09-17T02:43:48;8.10;99.90
63537;DHT22;49686;51.880;5.632;2022-09-17T02:46:29;8.10;99.90
63537;DHT22;49686;51.880;5.632;2022-09-17T02:49:36;8.00;99.90
63537;DHT22;49686;51.880;5.632;2022-09-17T02:52:11;8.10;99.90
63537;DHT22;49686;51.880;5.632;2022-09-17T02:54:45;8.30;99.90
63537;DHT22;49686;51.880;5.632;2022-09-17T02:57:21;8.20;99.90
63537;DHT22;49686;51.880;5.632;2022-09-17T02:59:53;8.10;99.90
63537;DHT22;49686;51.880;5.632;2022-09-17T03:02:27;8.10;99.90
63537;DHT22;49686;51.880;5.632;2022-09-17T03:04:58;8.10;99.90
63537;DHT22;49686;51.880;5.632;2022-09-17T03:07:26;8.00;99.90
63537;DHT22;49686;51.880;5.632;2022-09-17T03:09:52;7.90;99.90
63537;DHT22;49686;51.880;5.632;2022-09-17T03:12:19;8.00;99.90
63537;DHT22;49686;51.880;5.632;2022-09-17T03:14:47;8.00;99.90
63537;DHT22;49686;51.880;5.632;2022-09-17T03:17:13;7.80;99.90
63537;DHT22;49686;51.880;5.632;2022-09-17T03:19:42;7.80;99.90
63537;DHT22;49686;51.880;5.632;2022-09-17T03:22:09;7.90;99.90
63537;DHT22;49686;51.880;5.632;2022-09-17T03:24:36;7.80;99.90
63537;DHT22;49686;51.880;5.632;2022-09-17T03:27:03;7.60;99.90
63537;DHT22;49686;51.880;5.632;2022-09-17T03:29:30;7.70;99.90
63537;DHT22;49686;51.880;5.632;2022-09-17T03:31:57;7.50;99.90
63537;DHT22;49686;51.880;5.632;2022-09-17T03:34:24;7.50;99.90
63537;DHT22;49686;51.880;5.632;2022-09-17T03:36:53;7.60;99.90
63537;DHT22;49686;51.880;5.632;2022-09-17T03:39:19;7.40;99.90
63537;DHT22;49686;51.880;5.632;2022-09-17T03:41:46;7.40;99.90
63537;DHT22;49686;51.880;5.632;2022-09-17T03:44:13;7.40;99.90
63537;DHT22;49686;51.880;5.632;2022-09-17T03:46:41;7.60;99.90
63537;DHT22;49686;51.880;5.632;2022-09-17T03:49:07;7.50;99.90
63537;DHT22;49686;51.880;5.632;2022-09-17T03:51:35;7.50;99.90
63537;DHT22;49686;51.880;5.632;2022-09-17T03:54:03;7.40;99.90
63537;DHT22;49686;51.880;5.632;2022-09-17T03:56:29;7.40;99.90
63537;DHT22;49686;51.880;5.632;2022-09-17T03:58:57;7.30;99.90
63537;DHT22;49686;51.880;5.632;2022-09-17T04:01:24;7.30;99.90
63537;DHT22;49686;51.880;5.632;2022-09-17T04:03:51;7.30;99.90
63537;DHT22;49686;51.880;5.632;2022-09-17T04:06:19;7.10;99.90
63537;DHT22;49686;51.880;5.632;2022-09-17T04:08:46;7.30;99.90
63537;DHT22;49686;51.880;5.632;2022-09-17T04:11:14;7.10;99.90
63537;DHT22;49686;51.880;5.632;2022-09-17T04:13:42;7.30;99.90
63537;DHT22;49686;51.880;5.632;2022-09-17T04:16:08;7.10;99.90
63537;DHT22;49686;51.880;5.632;2022-09-17T04:18:35;7.20;99.90
63537;DHT22;49686;51.880;5.632;2022-09-17T04:21:03;7.10;99.90
63537;DHT22;49686;51.880;5.632;2022-09-17T04:23:30;7.00;99.90
63537;DHT22;49686;51.880;5.632;2022-09-17T04:25:57;7.10;99.90
63537;DHT22;49686;51.880;5.632;2022-09-17T04:28:26;7.40;99.90
63537;DHT22;49686;51.880;5.632;2022-09-17T04:30:52;7.30;99.90
63537;DHT22;49686;51.880;5.632;2022-09-17T04:33:20;7.70;99.90
63537;DHT22;49686;51.880;5.632;2022-09-17T04:35:48;7.50;99.90
63537;DHT22;49686;51.880;5.632;2022-09-17T04:38:14;7.50;99.90
63537;DHT22;49686;51.880;5.632;2022-09-17T04:40:41;7.60;99.90
63537;DHT22;49686;51.880;5.632;2022-09-17T04:43:08;7.40;99.90
63537;DHT22;49686;51.880;5.632;2022-09-17T04:45:37;7.40;99.90
63537;DHT22;49686;51.880;5.632;2022-09-17T04:48:03;7.40;99.90
63537;DHT22;49686;51.880;5.632;2022-09-17T04:50:31;7.50;99.90
63537;DHT22;49686;51.880;5.632;2022-09-17T04:52:58;7.50;99.90
63537;DHT22;49686;51.880;5.632;2022-09-17T04:55:24;7.50;99.90
63537;DHT22;49686;51.880;5.632;2022-09-17T04:57:52;7.50;99.90
63537;DHT22;49686;51.880;5.632;2022-09-17T05:00:20;7.50;99.90
63537;DHT22;49686;51.880;5.632;2022-09-17T05:02:51;7.70;99.90
63537;DHT22;49686;51.880;5.632;2022-09-17T05:05:19;7.60;99.90
63537;DHT22;49686;51.880;5.632;2022-09-17T05:07:46;7.80;99.90
63537;DHT22;49686;51.880;5.632;2022-09-17T05:10:15;7.70;99.90
63537;DHT22;49686;51.880;5.632;2022-09-17T05:12:47;7.60;99.90
63537;DHT22;49686;51.880;5.632;2022-09-17T05:15:14;7.50;99.90
63537;DHT22;49686;51.880;5.632;2022-09-17T05:17:41;7.50;99.90
63537;DHT22;49686;51.880;5.632;2022-09-17T05:20:10;7.40;99.90
63537;DHT22;49686;51.880;5.632;2022-09-17T05:22:40;7.30;99.90
63537;DHT22;49686;51.880;5.632;2022-09-17T05:25:08;7.40;99.90
63537;DHT22;49686;51.880;5.632;2022-09-17T05:27:37;7.50;99.90
63537;DHT22;49686;51.880;5.632;2022-09-17T05:30:05;7.60;99.90
63537;DHT22;49686;51.880;5.632;2022-09-17T05:32:33;7.60;99.90
63537;DHT22;49686;51.880;5.632;2022-09-17T05:35:00;7.70;99.90
63537;DHT22;49686;51.880;5.632;2022-09-17T05:37:32;7.50;99.90
63537;DHT22;49686;51.880;5.632;2022-09-17T05:40:00;7.50;99.90
63537;DHT22;49686;51.880;5.632;2022-09-17T05:42:28;7.30;99.90
63537;DHT22;49686;51.880;5.632;2022-09-17T05:44:54;7.40;99.90
63537;DHT22;49686;51.880;5.632;2022-09-17T05:47:23;7.50;99.90
63537;DHT22;49686;51.880;5.632;2022-09-17T05:49:50;7.70;99.90
63537;DHT22;49686;51.880;5.632;2022-09-17T05:52:17;7.90;99.90
63537;DHT22;49686;51.880;5.632;2022-09-17T05:54:45;8.00;99.90
63537;DHT22;49686;51.880;5.632;2022-09-17T05:57:12;8.00;99.90
63537;DHT22;49686;51.880;5.632;2022-09-17T05:59:39;8.10;99.90
63537;DHT22;49686;51.880;5.632;2022-09-17T06:02:06;8.10;99.90
63537;DHT22;49686;51.880;5.632;2022-09-17T06:04:33;8.00;99.90
63537;DHT22;49686;51.880;5.632;2022-09-17T06:07:03;8.00;99.90
63537;DHT22;49686;51.880;5.632;2022-09-17T06:09:30;8.00;99.90
63537;DHT22;49686;51.880;5.632;2022-09-17T06:11:58;8.20;99.90
63537;DHT22;49686;51.880;5.632;2022-09-17T06:14:25;8.30;99.90
63537;DHT22;49686;51.880;5.632;2022-09-17T06:16:53;8.40;99.90
63537;DHT22;49686;51.880;5.632;2022-09-17T06:19:21;8.60;99.90
63537;DHT22;49686;51.880;5.632;2022-09-17T06:21:48;8.70;99.90
63537;DHT22;49686;51.880;5.632;2022-09-17T06:24:16;8.70;99.90
63537;DHT22;49686;51.880;5.632;2022-09-17T06:26:46;8.90;99.90
63537;DHT22;49686;51.880;5.632;2022-09-17T06:29:14;9.10;99.90
63537;DHT22;49686;51.880;5.632;2022-09-17T06:31:42;9.30;99.90
63537;DHT22;49686;51.880;5.632;2022-09-17T06:34:09;9.50;99.90
63537;DHT22;49686;51.880;5.632;2022-09-17T06:36:36;9.40;99.90
63537;DHT22;49686;51.880;5.632;2022-09-17T06:39:03;9.50;99.90
63537;DHT22;49686;51.880;5.632;2022-09-17T06:41:30;9.50;99.90
63537;DHT22;49686;51.880;5.632;2022-09-17T06:43:57;9.40;99.90
63537;DHT22;49686;51.880;5.632;2022-09-17T06:46:26;9.30;99.90
63537;DHT22;49686;51.880;5.632;2022-09-17T06:48:53;9.30;99.90
63537;DHT22;49686;51.880;5.632;2022-09-17T06:51:20;9.50;99.90
63537;DHT22;49686;51.880;5.632;2022-09-17T06:53:48;9.80;99.90
63537;DHT22;49686;51.880;5.632;2022-09-17T06:56:15;11.00;99.90
63537;DHT22;49686;51.880;5.632;2022-09-17T06:58:42;11.40;99.90
63537;DHT22;49686;51.880;5.632;2022-09-17T07:01:11;12.10;99.90
63537;DHT22;49686;51.880;5.632;2022-09-17T07:03:41;12.00;99.90
63537;DHT22;49686;51.880;5.632;2022-09-17T07:06:08;11.20;99.90
63537;DHT22;49686;51.880;5.632;2022-09-17T07:08:36;11.60;99.90
63537;DHT22;49686;51.880;5.632;2022-09-17T07:11:03;12.30;99.90
63537;DHT22;49686;51.880;5.632;2022-09-17T07:13:30;13.40;99.90
63537;DHT22;49686;51.880;5.632;2022-09-17T07:15:58;11.90;99.90
63537;DHT22;49686;51.880;5.632;2022-09-17T07:18:26;10.80;99.90
63537;DHT22;49686;51.880;5.632;2022-09-17T07:20:55;10.80;99.90
63537;DHT22;49686;51.880;5.632;2022-09-17T07:23:24;12.40;99.90
63537;DHT22;49686;51.880;5.632;2022-09-17T07:25:51;12.20;99.90
63537;DHT22;49686;51.880;5.632;2022-09-17T07:28:18;12.40;99.90
63537;DHT22;49686;51.880;5.632;2022-09-17T07:30:45;12.00;99.90
63537;DHT22;49686;51.880;5.632;2022-09-17T07:33:13;12.00;99.90
63537;DHT22;49686;51.880;5.632;2022-09-17T07:35:40;12.00;99.90
63537;DHT22;49686;51.880;5.632;2022-09-17T07:38:08;12.10;99.90
63537;DHT22;49686;51.880;5.632;2022-09-17T07:40:35;12.20;99.90
63537;DHT22;49686;51.880;5.632;2022-09-17T07:43:02;12.60;99.90
63537;DHT22;49686;51.880;5.632;2022-09-17T07:45:29;12.70;99.90
63537;DHT22;49686;51.880;5.632;2022-09-17T07:47:56;12.50;99.90
63537;DHT22;49686;51.880;5.632;2022-09-17T07:50:23;12.80;99.90
63537;DHT22;49686;51.880;5.632;2022-09-17T07:52:50;12.20;99.90
63537;DHT22;49686;51.880;5.632;2022-09-17T07:55:18;12.40;99.90
63537;DHT22;49686;51.880;5.632;2022-09-17T07:57:50;12.60;99.90
63537;DHT22;49686;51.880;5.632;2022-09-17T08:00:17;12.70;99.90
63537;DHT22;49686;51.880;5.632;2022-09-17T08:02:44;12.70;99.90
63537;DHT22;49686;51.880;5.632;2022-09-17T08:05:11;12.40;99.90
63537;DHT22;49686;51.880;5.632;2022-09-17T08:07:39;12.70;99.90
63537;DHT22;49686;51.880;5.632;2022-09-17T08:10:06;12.90;99.90
63537;DHT22;49686;51.880;5.632;2022-09-17T08:12:34;13.00;99.90
63537;DHT22;49686;51.880;5.632;2022-09-17T08:15:01;12.70;99.90
63537;DHT22;49686;51.880;5.632;2022-09-17T08:17:28;12.60;99.90
63537;DHT22;49686;51.880;5.632;2022-09-17T08:19:55;12.90;99.90
63537;DHT22;49686;51.880;5.632;2022-09-17T08:22:22;13.00;99.90
63537;DHT22;49686;51.880;5.632;2022-09-17T08:24:49;13.00;99.90
63537;DHT22;49686;51.880;5.632;2022-09-17T08:27:16;13.00;99.90
63537;DHT22;49686;51.880;5.632;2022-09-17T08:29:44;13.30;99.90
63537;DHT22;49686;51.880;5.632;2022-09-17T08:32:11;12.90;99.90
63537;DHT22;49686;51.880;5.632;2022-09-17T08:34:38;12.90;99.90
63537;DHT22;49686;51.880;5.632;2022-09-17T08:37:05;13.70;99.90
63537;DHT22;49686;51.880;5.632;2022-09-17T08:39:32;13.90;99.90
63537;DHT22;49686;51.880;5.632;2022-09-17T08:42:06;13.80;99.90
63537;DHT22;49686;51.880;5.632;2022-09-17T08:44:39;14.00;99.90
63537;DHT22;49686;51.880;5.632;2022-09-17T08:47:15;13.50;99.90
63537;DHT22;49686;51.880;5.632;2022-09-17T08:49:48;13.50;99.90
63537;DHT22;49686;51.880;5.632;2022-09-17T08:55:24;14.00;99.90
63537;DHT22;49686;51.880;5.632;2022-09-17T08:57:59;14.20;99.90
63537;DHT22;49686;51.880;5.632;2022-09-17T09:00:34;14.40;99.90
63537;DHT22;49686;51.880;5.632;2022-09-17T09:03:31;13.30;99.90
63537;DHT22;49686;51.880;5.632;2022-09-17T09:06:04;12.70;99.90
63537;DHT22;49686;51.880;5.632;2022-09-17T09:08:39;12.30;99.90
63537;DHT22;49686;51.880;5.632;2022-09-17T09:11:13;12.20;99.90
63537;DHT22;49686;51.880;5.632;2022-09-17T09:13:45;12.00;99.90
63537;DHT22;49686;51.880;5.632;2022-09-17T09:16:16;12.40;99.90
63537;DHT22;49686;51.880;5.632;2022-09-17T09:18:49;12.50;99.90
63537;DHT22;49686;51.880;5.632;2022-09-17T09:21:24;13.00;99.90
63537;DHT22;49686;51.880;5.632;2022-09-17T09:23:53;12.70;99.90
63537;DHT22;49686;51.880;5.632;2022-09-17T09:26:21;12.00;99.90
63537;DHT22;49686;51.880;5.632;2022-09-17T09:29:00;11.90;99.90
63537;DHT22;49686;51.880;5.632;2022-09-17T09:34:28;11.40;99.90
63537;DHT22;49686;51.880;5.632;2022-09-17T09:37:04;10.90;99.90
63537;DHT22;49686;51.880;5.632;2022-09-17T09:39:37;11.20;99.90
63537;DHT22;49686;51.880;5.632;2022-09-17T09:42:15;11.90;99.90
63537;DHT22;49686;51.880;5.632;2022-09-17T09:44:45;12.00;99.90
63537;DHT22;49686;51.880;5.632;2022-09-17T09:47:34;12.80;99.90
63537;DHT22;49686;51.880;5.632;2022-09-17T09:50:24;13.20;99.90
63537;DHT22;49686;51.880;5.632;2022-09-17T09:53:21;12.90;99.90
63537;DHT22;49686;51.880;5.632;2022-09-17T09:56:02;12.60;99.90
63537;DHT22;49686;51.880;5.632;2022-09-17T09:58:34;13.20;99.90
63537;DHT22;49686;51.880;5.632;2022-09-17T10:01:01;13.40;99.90
63537;DHT22;49686;51.880;5.632;2022-09-17T10:03:29;13.00;99.90
63537;DHT22;49686;51.880;5.632;2022-09-17T10:06:00;13.30;99.90
63537;DHT22;49686;51.880;5.632;2022-09-17T10:08:29;14.20;99.90
63537;DHT22;49686;51.880;5.632;2022-09-17T10:10:58;14.40;99.90
63537;DHT22;49686;51.880;5.632;2022-09-17T10:13:27;14.30;99.90
63537;DHT22;49686;51.880;5.632;2022-09-17T10:15:54;14.20;99.90
63537;DHT22;49686;51.880;5.632;2022-09-17T10:18:22;14.40;99.90
63537;DHT22;49686;51.880;5.632;2022-09-17T10:20:55;14.80;99.90
63537;DHT22;49686;51.880;5.632;2022-09-17T10:23:26;15.00;99.90
63537;DHT22;49686;51.880;5.632;2022-09-17T10:25:54;15.20;99.90
63537;DHT22;49686;51.880;5.632;2022-09-17T10:28:43;14.50;99.90
63537;DHT22;49686;51.880;5.632;2022-09-17T10:31:10;14.90;99.90
63537;DHT22;49686;51.880;5.632;2022-09-17T10:33:49;15.60;99.90
63537;DHT22;49686;51.880;5.632;2022-09-17T10:36:16;15.90;99.90
63537;DHT22;49686;51.880;5.632;2022-09-17T10:39:30;13.40;99.90
63537;DHT22;49686;51.880;5.632;2022-09-17T10:41:58;12.10;99.90
63537;DHT22;49686;51.880;5.632;2022-09-17T10:44:27;11.20;99.90
63537;DHT22;49686;51.880;5.632;2022-09-17T10:46:55;11.20;99.90
63537;DHT22;49686;51.880;5.632;2022-09-17T10:49:35;11.10;99.90
63537;DHT22;49686;51.880;5.632;2022-09-17T10:52:05;11.90;99.90
63537;DHT22;49686;51.880;5.632;2022-09-17T10:54:58;12.60;99.90
63537;DHT22;49686;51.880;5.632;2022-09-17T10:57:37;12.90;99.90
63537;DHT22;49686;51.880;5.632;2022-09-17T11:00:12;13.30;99.90
63537;DHT22;49686;51.880;5.632;2022-09-17T11:03:03;13.50;99.90
63537;DHT22;49686;51.880;5.632;2022-09-17T11:05:53;14.30;99.90
63537;DHT22;49686;51.880;5.632;2022-09-17T11:08:26;14.80;99.90
63537;DHT22;49686;51.880;5.632;2022-09-17T11:11:04;14.20;99.90
63537;DHT22;49686;51.880;5.632;2022-09-17T11:13:38;14.60;99.90
63537;DHT22;49686;51.880;5.632;2022-09-17T11:16:14;14.00;99.90
63537;DHT22;49686;51.880;5.632;2022-09-17T11:18:46;14.90;99.90
63537;DHT22;49686;51.880;5.632;2022-09-17T11:21:37;14.80;99.90
63537;DHT22;49686;51.880;5.632;2022-09-17T11:27:15;14.30;99.90
63537;DHT22;49686;51.880;5.632;2022-09-17T11:29:49;13.60;99.90
63537;DHT22;49686;51.880;5.632;2022-09-17T11:32:32;13.30;99.90
63537;DHT22;49686;51.880;5.632;2022-09-17T11:35:10;13.40;99.90
63537;DHT22;49686;51.880;5.632;2022-09-17T11:37:40;13.50;99.90
63537;DHT22;49686;51.880;5.632;2022-09-17T11:40:14;13.80;99.90
63537;DHT22;49686;51.880;5.632;2022-09-17T11:42:48;14.60;99.90
63537;DHT22;49686;51.880;5.632;2022-09-17T11:45:18;15.30;99.90
63537;DHT22;49686;51.880;5.632;2022-09-17T11:47:50;15.70;99.90
63537;DHT22;49686;51.880;5.632;2022-09-17T11:50:22;16.30;99.90
63537;DHT22;49686;51.880;5.632;2022-09-17T11:53:01;16.30;99.90
63537;DHT22;49686;51.880;5.632;2022-09-17T11:55:34;16.10;99.90
63537;DHT22;49686;51.880;5.632;2022-09-17T11:58:10;16.10;99.90
63537;DHT22;49686;51.880;5.632;2022-09-17T12:00:44;15.40;99.90
63537;DHT22;49686;51.880;5.632;2022-09-17T12:03:17;14.60;99.90
63537;DHT22;49686;51.880;5.632;2022-09-17T12:05:51;14.50;99.90
63537;DHT22;49686;51.880;5.632;2022-09-17T12:08:23;14.10;99.90
63537;DHT22;49686;51.880;5.632;2022-09-17T12:10:54;12.80;99.90
63537;DHT22;49686;51.880;5.632;2022-09-17T12:13:32;12.10;99.90
63537;DHT22;49686;51.880;5.632;2022-09-17T12:16:09;11.60;99.90
63537;DHT22;49686;51.880;5.632;2022-09-17T12:18:54;11.60;99.90
63537;DHT22;49686;51.880;5.632;2022-09-17T12:21:25;11.80;99.90
63537;DHT22;49686;51.880;5.632;2022-09-17T12:23:58;12.60;99.90
63537;DHT22;49686;51.880;5.632;2022-09-17T12:38:50;13.40;99.90
63537;DHT22;49686;51.880;5.632;2022-09-17T12:41:21;13.00;99.90
63537;DHT22;49686;51.880;5.632;2022-09-17T12:44:00;13.60;99.90
63537;DHT22;49686;51.880;5.632;2022-09-17T12:46:43;13.70;99.90
63537;DHT22;49686;51.880;5.632;2022-09-17T12:49:34;13.10;99.90
63537;DHT22;49686;51.880;5.632;2022-09-17T12:52:10;13.10;99.90
63537;DHT22;49686;51.880;5.632;2022-09-17T12:54:53;13.70;99.90
63537;DHT22;49686;51.880;5.632;2022-09-17T12:57:32;14.00;99.90
63537;DHT22;49686;51.880;5.632;2022-09-17T13:00:03;13.90;99.90
63537;DHT22;49686;51.880;5.632;2022-09-17T13:02:40;13.50;99.90
63537;DHT22;49686;51.880;5.632;2022-09-17T13:05:39;12.80;99.90
63537;DHT22;49686;51.880;5.632;2022-09-17T13:08:26;13.00;99.90
63537;DHT22;49686;51.880;5.632;2022-09-17T13:14:06;13.20;99.90
63537;DHT22;49686;51.880;5.632;2022-09-17T13:16:40;12.90;99.90
63537;DHT22;49686;51.880;5.632;2022-09-17T13:19:22;11.70;99.90
63537;DHT22;49686;51.880;5.632;2022-09-17T13:21:52;11.40;99.90
63537;DHT22;49686;51.880;5.632;2022-09-17T13:24:22;11.40;99.90
63537;DHT22;49686;51.880;5.632;2022-09-17T13:26:49;11.60;99.90
63537;DHT22;49686;51.880;5.632;2022-09-17T13:32:41;11.80;99.90
63537;DHT22;49686;51.880;5.632;2022-09-17T13:35:46;12.70;99.90
63537;DHT22;49686;51.880;5.632;2022-09-17T13:38:14;13.50;99.90
63537;DHT22;49686;51.880;5.632;2022-09-17T13:40:47;12.80;99.90
63537;DHT22;49686;51.880;5.632;2022-09-17T13:43:17;11.90;99.90
63537;DHT22;49686;51.880;5.632;2022-09-17T13:46:04;11.40;99.90
63537;DHT22;49686;51.880;5.632;2022-09-17T13:48:33;11.20;99.90
63537;DHT22;49686;51.880;5.632;2022-09-17T13:51:50;11.20;99.90
63537;DHT22;49686;51.880;5.632;2022-09-17T13:54:20;11.80;99.90
63537;DHT22;49686;51.880;5.632;2022-09-17T13:56:50;12.40;99.90
63537;DHT22;49686;51.880;5.632;2022-09-17T13:59:29;13.00;99.90
63537;DHT22;49686;51.880;5.632;2022-09-17T14:02:01;13.50;99.90
63537;DHT22;49686;51.880;5.632;2022-09-17T14:04:45;13.90;99.90
63537;DHT22;49686;51.880;5.632;2022-09-17T14:07:32;14.10;99.90
63537;DHT22;49686;51.880;5.632;2022-09-17T14:10:01;14.80;99.90
63537;DHT22;49686;51.880;5.632;2022-09-17T14:12:51;14.50;99.90
63537;DHT22;49686;51.880;5.632;2022-09-17T14:15:52;14.80;99.90
63537;DHT22;49686;51.880;5.632;2022-09-17T14:18:36;14.50;99.90
63537;DHT22;49686;51.880;5.632;2022-09-17T14:21:19;14.00;99.90
63537;DHT22;49686;51.880;5.632;2022-09-17T14:23:53;13.90;99.90
63537;DHT22;49686;51.880;5.632;2022-09-17T14:26:32;13.70;99.90
63537;DHT22;49686;51.880;5.632;2022-09-17T14:29:05;13.60;99.90
63537;DHT22;49686;51.880;5.632;2022-09-17T14:31:35;13.20;99.90
63537;DHT22;49686;51.880;5.632;2022-09-17T14:34:04;12.70;99.90
63537;DHT22;49686;51.880;5.632;2022-09-17T14:36:35;12.60;99.90
63537;DHT22;49686;51.880;5.632;2022-09-17T14:39:09;12.50;99.90
63537;DHT22;49686;51.880;5.632;2022-09-17T14:41:40;12.60;99.90
63537;DHT22;49686;51.880;5.632;2022-09-17T14:44:13;13.00;99.90
63537;DHT22;49686;51.880;5.632;2022-09-17T14:46:46;13.40;99.90
63537;DHT22;49686;51.880;5.632;2022-09-17T14:49:19;13.20;99.90
63537;DHT22;49686;51.880;5.632;2022-09-17T14:51:47;12.80;99.90
63537;DHT22;49686;51.880;5.632;2022-09-17T14:54:18;12.80;99.90
63537;DHT22;49686;51.880;5.632;2022-09-17T14:56:58;12.70;99.90
63537;DHT22;49686;51.880;5.632;2022-09-17T14:59:46;12.80;99.90
63537;DHT22;49686;51.880;5.632;2022-09-17T15:02:21;13.20;99.90
63537;DHT22;49686;51.880;5.632;2022-09-17T15:04:49;13.30;99.90
63537;DHT22;49686;51.880;5.632;2022-09-17T15:07:19;13.50;99.90
63537;DHT22;49686;51.880;5.632;2022-09-17T15:09:48;13.70;99.90
63537;DHT22;49686;51.880;5.632;2022-09-17T15:12:16;13.80;99.90
63537;DHT22;49686;51.880;5.632;2022-09-17T15:14:46;13.90;99.90
63537;DHT22;49686;51.880;5.632;2022-09-17T15:17:15;14.30;99.90
63537;DHT22;49686;51.880;5.632;2022-09-17T15:19:45;14.20;99.90
63537;DHT22;49686;51.880;5.632;2022-09-17T15:22:19;14.20;99.90
63537;DHT22;49686;51.880;5.632;2022-09-17T15:24:50;14.30;99.90
63537;DHT22;49686;51.880;5.632;2022-09-17T15:27:21;14.40;99.90
63537;DHT22;49686;51.880;5.632;2022-09-17T15:29:50;14.50;99.90
63537;DHT22;49686;51.880;5.632;2022-09-17T15:32:20;14.30;99.90
63537;DHT22;49686;51.880;5.632;2022-09-17T15:35:18;14.20;99.90
63537;DHT22;49686;51.880;5.632;2022-09-17T15:37:47;14.30;99.90
63537;DHT22;49686;51.880;5.632;2022-09-17T15:40:38;14.40;99.90
63537;DHT22;49686;51.880;5.632;2022-09-17T15:43:16;14.40;99.90
63537;DHT22;49686;51.880;5.632;2022-09-17T15:45:44;14.40;99.90
63537;DHT22;49686;51.880;5.632;2022-09-17T15:48:21;14.80;99.90
63537;DHT22;49686;51.880;5.632;2022-09-17T15:50:51;14.80;99.90
63537;DHT22;49686;51.880;5.632;2022-09-17T15:53:22;14.60;99.90
63537;DHT22;49686;51.880;5.632;2022-09-17T15:56:03;14.50;99.90
63537;DHT22;49686;51.880;5.632;2022-09-17T15:58:36;14.60;99.90
63537;DHT22;49686;51.880;5.632;2022-09-17T16:01:49;14.40;99.90
63537;DHT22;49686;51.880;5.632;2022-09-17T16:04:19;13.90;99.90
63537;DHT22;49686;51.880;5.632;2022-09-17T16:06:51;14.00;99.90
63537;DHT22;49686;51.880;5.632;2022-09-17T16:09:36;14.20;99.90
63537;DHT22;49686;51.880;5.632;2022-09-17T16:12:05;13.90;99.90
63537;DHT22;49686;51.880;5.632;2022-09-17T16:14:33;13.70;99.90
63537;DHT22;49686;51.880;5.632;2022-09-17T16:17:08;13.50;99.90
63537;DHT22;49686;51.880;5.632;2022-09-17T16:19:36;13.20;99.90
63537;DHT22;49686;51.880;5.632;2022-09-17T16:22:02;13.00;99.90
63537;DHT22;49686;51.880;5.632;2022-09-17T16:24:29;12.80;99.90
63537;DHT22;49686;51.880;5.632;2022-09-17T16:26:57;12.60;99.90
63537;DHT22;49686;51.880;5.632;2022-09-17T16:29:25;12.60;99.90
63537;DHT22;49686;51.880;5.632;2022-09-17T16:31:52;12.70;99.90
63537;DHT22;49686;51.880;5.632;2022-09-17T16:34:19;12.50;99.90
63537;DHT22;49686;51.880;5.632;2022-09-17T16:36:48;12.60;99.90
63537;DHT22;49686;51.880;5.632;2022-09-17T16:39:15;12.50;99.90
63537;DHT22;49686;51.880;5.632;2022-09-17T16:41:42;12.40;99.90